Terminal Aerodrome Forecast
Issued by NWS Sioux Falls, SD

Home | Current Version | Previous Version | Graphics & Text | Print | Product List | Glossary Off
Versions: 1 2 3 4 5 6 7 8 9 10 11 12 13 14 15 16 17 18 19 20 21 22 23 24 25 26 27 28 29 30 31 32 33 34 35

000
FTUS43 KFSD 212332
TAFSUX
TAF
KSUX 212332Z 2200/2224 03016G24KT 6SM -RA OVC025
     FM220300 02016G24KT 5SM -RASN OVC015
     FM220800 02021G29KT 2SM -SN BLSN OVC015
     FM221000 01021G29KT 1/2SM SN BLSN OVC008
     FM221800 35025G33KT 1SM -SN BLSN OVC010=

USA.gov is the U.S. government's official web portal to all federal, state and local government web resources and services.